createdAt,value
2023-05-07T00:03:18.595Z,74.00
2023-05-07T00:08:40.600Z,74.45
2023-05-07T00:14:01.977Z,74.40
2023-05-07T00:19:23.472Z,74.57
2023-05-07T00:24:45.071Z,75.08
2023-05-07T00:30:07.409Z,75.18
2023-05-07T00:35:30.554Z,75.68
2023-05-07T00:40:52.690Z,75.88
2023-05-07T00:46:14.817Z,76.04
2023-05-07T00:51:37.876Z,76.16
2023-05-07T00:56:59.739Z,76.03
2023-05-07T01:02:21.595Z,76.20
2023-05-07T01:07:44.683Z,76.28
2023-05-07T01:13:06.652Z,76.42
2023-05-07T01:18:31.105Z,76.25
2023-05-07T01:23:55.017Z,75.77
2023-05-07T01:29:17.492Z,75.47
2023-05-07T01:34:40.958Z,75.90
2023-05-07T01:40:03.490Z,76.10
2023-05-07T01:45:25.989Z,76.33
2023-05-07T01:50:48.440Z,76.55
2023-05-07T01:56:10.704Z,76.29
2023-05-07T02:01:33.952Z,76.00
2023-05-07T02:06:56.880Z,75.89
2023-05-07T02:12:21.949Z,76.15
2023-05-07T02:18:07.480Z,75.95
2023-05-07T02:23:29.745Z,75.91
2023-05-07T02:28:51.988Z,76.26
2023-05-07T02:34:16.937Z,76.09
2023-05-07T02:39:38.905Z,76.13
2023-05-07T02:45:01.035Z,76.30
2023-05-07T02:50:23.292Z,76.25
2023-05-07T02:55:45.081Z,76.24
2023-05-07T03:01:07.354Z,76.51
2023-05-07T03:06:33.660Z,76.55
2023-05-07T03:11:58.602Z,76.66
2023-05-07T03:17:21.790Z,76.48
2023-05-07T03:22:46.592Z,76.26
2023-05-07T03:28:08.374Z,76.04
2023-05-07T03:33:38.578Z,76.70
2023-05-07T03:39:00.830Z,76.46
2023-05-07T03:44:29.392Z,76.29
2023-05-07T03:49:53.985Z,76.52
2023-05-07T03:55:19.178Z,76.86
2023-05-07T04:00:45.847Z,77.00
2023-05-07T04:06:11.758Z,77.17
2023-05-07T04:11:33.580Z,77.26
2023-05-07T04:16:55.885Z,77.32
2023-05-07T04:22:18.010Z,77.85
2023-05-07T04:27:40.907Z,77.70
2023-05-07T04:33:02.923Z,77.68
2023-05-07T04:38:26.714Z,77.79
2023-05-07T04:43:48.821Z,78.21
2023-05-07T04:49:12.474Z,77.92
2023-05-07T04:54:34.275Z,77.71
2023-05-07T04:59:56.028Z,77.45
2023-05-07T05:05:18.032Z,77.24
2023-05-07T05:10:41.238Z,77.12
2023-05-07T05:16:03.059Z,76.73
2023-05-07T05:21:28.938Z,77.03
2023-05-07T05:26:55.033Z,76.65
2023-05-07T05:32:17.224Z,76.78
2023-05-07T05:37:39.715Z,77.19
2023-05-07T05:43:01.592Z,76.74
2023-05-07T05:48:24.001Z,76.87
2023-05-07T05:53:45.942Z,76.91
2023-05-07T05:59:08.700Z,76.99
2023-05-07T06:04:30.752Z,76.91
2023-05-07T06:09:53.314Z,76.52
2023-05-07T06:15:15.155Z,76.06
2023-05-07T06:20:37.655Z,76.11
2023-05-07T06:26:01.031Z,76.57
2023-05-07T06:31:32.107Z,76.41
2023-05-07T06:37:00.244Z,76.81
2023-05-07T06:42:34.426Z,77.00
2023-05-07T06:48:12.717Z,76.96
2023-05-07T06:53:55.160Z,76.41
2023-05-07T06:59:17.297Z,76.50
2023-05-07T07:04:42.394Z,76.27
2023-05-07T07:10:06.400Z,76.16
2023-05-07T07:15:28.484Z,75.61
2023-05-07T07:20:51.165Z,75.10
2023-05-07T07:26:13.213Z,74.70
2023-05-07T07:31:35.675Z,74.32
2023-05-07T07:36:57.658Z,74.10
2023-05-07T07:42:19.912Z,74.33
2023-05-07T07:47:41.969Z,73.42
2023-05-07T07:53:05.360Z,73.40
2023-05-07T07:58:27.300Z,72.97
2023-05-07T08:03:50.049Z,72.71
2023-05-07T08:09:12.626Z,72.59
2023-05-07T08:14:37.770Z,72.37
2023-05-07T08:19:59.710Z,72.66
2023-05-07T08:25:21.422Z,73.01
2023-05-07T08:30:43.100Z,72.86
2023-05-07T08:36:05.648Z,72.89
2023-05-07T08:41:27.546Z,72.75
2023-05-07T08:46:50.946Z,72.65
2023-05-07T08:52:13.499Z,72.54
2023-05-07T08:57:35.953Z,72.26
2023-05-07T09:02:58.439Z,71.83
2023-05-07T09:08:30.640Z,72.01
2023-05-07T09:13:56.582Z,72.16
2023-05-07T09:19:27.724Z,71.38
2023-05-07T09:24:52.815Z,71.27
2023-05-07T09:30:17.600Z,70.80
2023-05-07T09:35:44.628Z,70.41
2023-05-07T09:41:15.212Z,69.85
2023-05-07T09:46:48.383Z,70.07
2023-05-07T09:52:15.498Z,69.63
2023-05-07T09:57:43.192Z,69.65
2023-05-07T10:03:06.335Z,69.05
2023-05-07T10:08:41.322Z,69.33
2023-05-07T10:14:05.091Z,69.44
2023-05-07T10:19:29.332Z,69.78
2023-05-07T10:24:54.632Z,69.79
2023-05-07T10:30:23.420Z,69.34
2023-05-07T10:35:48.102Z,68.68
2023-05-07T10:41:10.977Z,68.21
2023-05-07T10:46:36.695Z,67.80
2023-05-07T10:52:18.473Z,67.84
2023-05-07T10:58:31.407Z,67.74
2023-05-07T11:04:15.277Z,68.23
2023-05-07T11:10:02.654Z,68.05
2023-05-07T11:15:43.118Z,67.85
2023-05-07T11:21:36.927Z,67.79
2023-05-07T11:27:16.593Z,68.11
2023-05-07T11:32:38.393Z,68.51
2023-05-07T11:38:01.650Z,68.53
2023-05-07T11:43:24.952Z,68.03
2023-05-07T11:48:46.787Z,68.18
2023-05-07T11:54:11.949Z,68.06
2023-05-07T11:59:42.783Z,67.91
2023-05-07T12:05:05.085Z,67.78
2023-05-07T12:10:29.313Z,67.79
2023-05-07T12:15:55.531Z,68.26
2023-05-07T12:21:18.527Z,68.48
2023-05-07T12:26:41.872Z,68.59
2023-05-07T12:32:05.873Z,67.82
2023-05-07T12:37:31.153Z,66.70
2023-05-07T12:43:00.248Z,66.90
2023-05-07T12:48:22.953Z,66.60
2023-05-07T12:53:45.155Z,66.30
2023-05-07T12:59:06.850Z,66.09
2023-05-07T13:04:30.708Z,66.08
2023-05-07T13:09:54.348Z,65.98
2023-05-07T13:15:16.387Z,66.00
2023-05-07T13:20:38.597Z,65.61
2023-05-07T13:26:04.131Z,65.20
2023-05-07T13:31:28.193Z,65.30
2023-05-07T13:36:50.109Z,65.23
2023-05-07T13:42:14.694Z,65.39
2023-05-07T13:47:40.179Z,65.98
2023-05-07T13:53:02.552Z,65.71
2023-05-07T13:58:24.171Z,65.59
2023-05-07T14:03:46.336Z,65.70
2023-05-07T14:09:08.087Z,65.97
2023-05-07T14:14:30.083Z,65.81
2023-05-07T14:19:52.137Z,65.93
2023-05-07T14:25:14.615Z,66.26
2023-05-07T14:30:38.513Z,66.19
2023-05-07T14:36:00.456Z,66.73
2023-05-07T14:41:23.253Z,66.57
2023-05-07T14:46:44.981Z,66.54
2023-05-07T14:52:07.310Z,66.45
2023-05-07T14:57:32.982Z,66.74
2023-05-07T15:03:06.735Z,66.55
2023-05-07T15:08:28.392Z,66.11
2023-05-07T15:13:50.907Z,65.94
2023-05-07T15:19:12.673Z,66.01
2023-05-07T15:24:34.113Z,66.05
2023-05-07T15:29:56.024Z,66.74
2023-05-07T15:35:18.428Z,67.36
2023-05-07T15:40:42.995Z,67.64
2023-05-07T15:46:04.983Z,67.11
2023-05-07T15:51:27.032Z,67.40
2023-05-07T15:56:48.809Z,66.96
2023-05-07T16:02:10.481Z,67.32
2023-05-07T16:07:36.348Z,67.56
2023-05-07T16:12:58.901Z,67.80
2023-05-07T16:18:20.827Z,67.67
2023-05-07T16:23:42.853Z,67.52
2023-05-07T16:29:05.450Z,67.38
2023-05-07T16:34:27.423Z,67.73
2023-05-07T16:39:49.205Z,67.63
2023-05-07T16:45:13.193Z,67.55
2023-05-07T16:50:36.070Z,67.75
2023-05-07T16:55:57.817Z,67.71
2023-05-07T17:01:19.702Z,67.63
2023-05-07T17:06:42.723Z,67.61
2023-05-07T17:12:05.490Z,67.87
2023-05-07T17:17:27.089Z,67.90
2023-05-07T17:22:48.840Z,67.91
2023-05-07T17:28:14.054Z,68.02
2023-05-07T17:33:37.708Z,67.82
2023-05-07T17:39:03.014Z,68.11
2023-05-07T17:44:24.883Z,67.62
2023-05-07T17:49:47.033Z,67.81
2023-05-07T17:55:09.205Z,67.94
2023-05-07T18:00:31.049Z,67.86
2023-05-07T18:05:52.654Z,67.63
2023-05-07T18:11:14.203Z,67.93
2023-05-07T18:16:36.245Z,67.77
2023-05-07T18:21:58.416Z,67.87
2023-05-07T18:27:22.785Z,67.77
2023-05-07T18:32:44.812Z,67.59
2023-05-07T18:38:07.931Z,67.72
2023-05-07T18:43:29.874Z,67.76
2023-05-07T18:48:52.860Z,67.45
2023-05-07T18:54:15.479Z,67.31
2023-05-07T18:59:37.418Z,67.41
2023-05-07T19:04:59.451Z,67.65
2023-05-07T19:10:26.828Z,67.41
2023-05-07T19:15:48.390Z,67.83
2023-05-07T19:21:10.712Z,67.87
2023-05-07T19:26:36.247Z,67.84
2023-05-07T19:31:59.662Z,67.90
2023-05-07T19:37:24.206Z,67.60
2023-05-07T19:42:46.615Z,67.96
2023-05-07T19:48:08.249Z,68.43
2023-05-07T19:53:30.537Z,67.85
2023-05-07T19:58:53.007Z,67.87
2023-05-07T20:04:18.120Z,68.67
2023-05-07T20:09:40.194Z,68.46
2023-05-07T20:15:01.764Z,68.46
2023-05-07T20:20:24.088Z,68.45
2023-05-07T20:25:48.400Z,68.30
2023-05-07T20:31:10.242Z,68.45
2023-05-07T20:36:32.776Z,68.75
2023-05-07T20:41:54.603Z,68.24
2023-05-07T20:47:19.342Z,68.11
2023-05-07T20:52:42.177Z,68.52
2023-05-07T20:58:04.129Z,68.02
2023-05-07T21:03:25.978Z,68.67
2023-05-07T21:08:48.029Z,68.53
2023-05-07T21:14:11.353Z,68.40
2023-05-07T21:19:34.170Z,68.27
2023-05-07T21:24:56.219Z,68.35
2023-05-07T21:30:17.979Z,68.96
2023-05-07T21:35:39.895Z,69.01
2023-05-07T21:41:01.460Z,69.03
2023-05-07T21:46:23.132Z,68.98
2023-05-07T21:51:44.951Z,69.65
2023-05-07T21:57:07.945Z,69.59
2023-05-07T22:02:29.836Z,69.97
2023-05-07T22:07:52.019Z,70.01
2023-05-07T22:13:13.764Z,70.62
2023-05-07T22:18:35.453Z,70.89
2023-05-07T22:23:57.499Z,71.28
2023-05-07T22:29:23.587Z,71.24
2023-05-07T22:34:49.604Z,71.12
2023-05-07T22:40:11.865Z,71.33
2023-05-07T22:45:36.242Z,71.40
2023-05-07T22:50:58.323Z,71.55
2023-05-07T22:56:19.851Z,72.11
2023-05-07T23:01:41.800Z,72.21
2023-05-07T23:07:03.911Z,72.17
2023-05-07T23:12:25.811Z,72.19
2023-05-07T23:17:50.452Z,71.92
2023-05-07T23:23:13.865Z,72.11
2023-05-07T23:28:36.047Z,71.79
2023-05-07T23:33:58.015Z,71.59
2023-05-07T23:39:20.543Z,71.46
2023-05-07T23:44:43.080Z,71.47
2023-05-07T23:50:06.205Z,71.43
2023-05-07T23:55:28.063Z,71.43
